Flight Track Log - Related Links

Times and Time Zones

All times are in EDT time to prevent confusion due to time zone crossing. See the UPS2592 flight status page for this flight to view local times or setup timezone preferences in your user account.

Time Position Orientation Groundspeed Altitude Reporting Facility
EDT Latitude Longitude Course Direction KTS MPH feet Rate Location/Type
Thu 06:05:01 PM 38.1710 -85.7400 292° West 2 2  Level FlightAware ADS-B
Thu 06:10:03 PM 38.1710 -85.7420 270° West 31 36 78 Level FlightAware ADS-B
Thu 06:10:36 PM 38.1690 -85.7410 159° South 15 17 176 Level FlightAware ADS-B
Thu 06:11:33 PM 38.1650 -85.7400 169° South 22 25 205 Level FlightAware ADS-B
Thu 06:14:00 PM 38.3166 -86.0540 302° West  Level Estimated
Thu 06:14:01 PM 38.1820 -85.7470 302° West 176 203 700  Level FlightAware ADS-B
Thu 06:14:13 PM 38.1920 -85.7500 347° North 173 199 1,400 2,727 Climbing FlightAware ADS-B
Thu 06:14:45 PM 38.2170 -85.7630 338° Northwest 196 226 2,700 1,900 Climbing FlightAware ADS-B
Thu 06:15:13 PM 38.2410 -85.7800 331° Northwest 239 275 3,300 1,714 Climbing FlightAware ADS-B
Thu 06:15:41 PM 38.2700 -85.8030 328° Northwest 271 312 4,300 2,400 Climbing FlightAware ADS-B
Thu 06:15:53 PM 38.2770 -85.8200 298° West 275 316 4,900 2,889 Climbing FlightAware ADS-B
Thu 06:16:08 PM 38.2790 -85.8420 277° West 280 322 5,600 3,261 Climbing FlightAware ADS-B
Thu 06:16:39 PM 38.2700 -85.8950 258° West 287 330 7,400 3,488 Climbing FlightAware ADS-B
Thu 06:16:51 PM 38.2600 -85.9090 228° Southwest 288 331 8,100 3,333 Climbing FlightAware ADS-B
Thu 06:17:15 PM 38.2350 -85.9350 219° Southwest 292 336 9,400 2,531 Climbing FlightAware ADS-B
Thu 06:17:55 PM 38.1910 -85.9800 219° Southwest 327 376 10,800 1,692 Climbing FlightAware ADS-B
Thu 06:18:33 PM 38.1430 -86.0310 220° Southwest 373 429 11,600 1,800 Climbing FlightAware ADS-B
Thu 06:19:15 PM 38.0920 -86.0940 224° Southwest 393 452 13,200 2,382 Climbing FlightAware ADS-B
Thu 06:19:41 PM 38.0710 -86.1530 246° West 405 466 14,300 794 Climbing FlightAware ADS-B
Thu 06:21:31 PM 38.0270 -86.3770 256° West 412 474 15,000 2,046 Climbing FlightAware ADS-B
Thu 06:22:34 PM 38.0300 -86.5440 271° West 443 510 20,200 3,818 Climbing FlightAware ADS-B
Thu 06:23:21 PM 38.0180 -86.7050 265° West 457 526 22,000 2,023 Climbing FlightAware ADS-B
Thu 06:24:00 PM 38.0120 -86.8130 266° West 467 537 23,100 1,672 Climbing FlightAware ADS-B
Thu 06:24:22 PM 38.0140 -86.8730 272° West 473 544 23,700 1,467 Climbing FlightAware ADS-B
Thu 06:27:00 PM 38.0910 -87.3130 283° West 497 572 27,500 1,515 Climbing FlightAware ADS-B
Thu 06:27:40 PM 38.1120 -87.4260 283° West 493 567 28,700 1,610 Climbing FlightAware ADS-B
Thu 06:28:22 PM 38.1340 -87.5440 283° West 492 566 29,700 1,286 Climbing FlightAware ADS-B
Thu 06:29:04 PM 38.1560 -87.6630 283° West 492 566 30,500 1,308 Climbing FlightAware ADS-B
Thu 06:29:40 PM 38.1740 -87.7640 283° West 486 559 31,400 1,169 Climbing FlightAware ADS-B
Thu 06:30:21 PM 38.1950 -87.8780 283° West 489 563 32,000 429 Climbing FlightAware ADS-B
Thu 06:31:04 PM 38.2170 -88.0010 283° West 487 560 32,000  Level FlightAware ADS-B
Thu 06:31:44 PM 38.2370 -88.1090 283° West 483 556 32,000  Level FlightAware ADS-B
Thu 06:32:28 PM 38.2590 -88.2330 283° West 480 552 32,000  Level FlightAware ADS-B
Thu 06:33:09 PM 38.2780 -88.3440 282° West 484 557 32,000  Level FlightAware ADS-B
Thu 06:33:48 PM 38.2970 -88.4520 283° West 486 559 32,000  Level FlightAware ADS-B
Thu 06:34:22 PM 38.3140 -88.5500 282° West 487 560 32,000  Level FlightAware ADS-B
Thu 06:35:08 PM 38.3370 -88.6760 283° West 487 560 32,000  Level FlightAware ADS-B
Thu 06:35:48 PM 38.3560 -88.7880 282° West 488 562 32,000  Level FlightAware ADS-B
Thu 06:36:32 PM 38.3780 -88.9150 282° West 488 562 32,000  Level FlightAware ADS-B
Thu 06:37:12 PM 38.3960 -89.0240 282° West 487 560 32,000  Level FlightAware ADS-B
Thu 06:37:56 PM 38.4180 -89.1500 283° West 488 562 32,000  Level FlightAware ADS-B
Thu 06:38:36 PM 38.4300 -89.2610 278° West 488 562 32,000  Level FlightAware ADS-B
Thu 06:39:18 PM 38.4410 -89.3810 277° West 487 560 32,000  Level FlightAware ADS-B
Thu 06:39:54 PM 38.4510 -89.4830 277° West 482 555 32,000  Level FlightAware ADS-B
Thu 06:40:34 PM 38.4620 -89.5960 277° West 482 555 32,000  Level FlightAware ADS-B
Thu 06:41:34 PM 38.4760 -89.7540 277° West 482 555 32,000  Level FlightAware ADS-B
Thu 06:42:22 PM 38.4850 -89.8700 276° West 482 555 32,000  Level FlightAware ADS-B
Thu 06:43:31 PM 38.5330 -90.0680 287° West 481 554 32,000  Level FlightAware ADS-B
Thu 06:44:08 PM 38.5540 -90.1540 287° West 481 554 32,000  Level FlightAware ADS-B
Thu 06:44:57 PM 38.5810 -90.2670 287° West 481 554 32,000  Level FlightAware ADS-B
Thu 06:45:04 PM 38.6590 -90.3040 340° North 485 558 32,000  Level FlightAware ADS-B
Thu 06:45:53 PM 38.7120 -90.4030 304° West 485 558 32,000  Level FlightAware ADS-B
Thu 06:46:41 PM 38.7780 -90.5300 304° West 481 554 32,000  Level FlightAware ADS-B
Thu 06:47:17 PM 38.8150 -90.6040 303° West 481 554 32,000  Level FlightAware ADS-B
Thu 06:48:14 PM 38.8960 -90.7540 305° West 478 550 32,000  Level FlightAware ADS-B
Thu 06:49:08 PM 38.9620 -90.8820 304° West 478 550 32,000  Level FlightAware ADS-B
Thu 06:49:45 PM 39.0000 -90.9570 303° West 478 550 32,000  Level FlightAware ADS-B
Thu 06:50:29 PM 39.0600 -91.0720 304° West 479 551 32,000  Level FlightAware ADS-B
Thu 06:51:12 PM 39.1140 -91.1760 304° West 478 550 32,000  Level FlightAware ADS-B
Thu 06:51:55 PM 39.1670 -91.2810 303° West 478 550 32,000  Level FlightAware ADS-B
Thu 06:52:40 PM 39.2140 -91.3730 303° West 477 549 32,000  Level FlightAware ADS-B
Thu 06:53:12 PM 39.2590 -91.4620 303° West 476 548 32,000  Level FlightAware ADS-B
Thu 06:53:54 PM 39.3100 -91.5590 304° West 477 549 32,000  Level FlightAware ADS-B
Thu 06:54:38 PM 39.3630 -91.6670 302° West 479 551 32,000  Level FlightAware ADS-B
Thu 06:55:12 PM 39.4040 -91.7460 304° West 480 552 32,000  Level FlightAware ADS-B
Thu 06:55:46 PM 39.4480 -91.8300 304° West 482 555 32,000  Level FlightAware ADS-B
Thu 06:57:18 PM 39.5520 -92.0410 303° West 482 555 32,000  Level FlightAware ADS-B
Thu 06:57:58 PM 39.6070 -92.1500 303° West 484 557 32,000  Level FlightAware ADS-B
Thu 06:58:38 PM 39.6480 -92.2340 302° West 484 557 32,000  Level FlightAware ADS-B
Thu 06:59:27 PM 39.6970 -92.3370 302° West 484 557 32,000  Level FlightAware ADS-B
Thu 07:02:25 PM 39.8760 -92.7110 302° West 484 557 32,000  Level FlightAware ADS-B
Thu 07:03:11 PM 39.9730 -92.8940 305° West 485 558 32,000  Level FlightAware ADS-B
Thu 07:04:02 PM 40.0470 -93.0500 302° West 483 556 32,000  Level FlightAware ADS-B
Thu 07:04:49 PM 40.1020 -93.1630 302° West 483 556 32,000  Level FlightAware ADS-B
Thu 07:05:32 PM 40.1530 -93.2690 302° West 482 555 32,000  Level FlightAware ADS-B
Thu 07:06:12 PM 40.2010 -93.3680 302° West 483 556 32,000  Level FlightAware ADS-B
Thu 07:06:52 PM 40.2490 -93.4700 302° West 485 558 32,000  Level FlightAware ADS-B
Thu 07:07:10 PM 40.2710 -93.5151 303° West 486 559 32,000  Level FlightAware ADS-B
Thu 07:07:41 PM 40.3071 -93.5901 302° West 488 562 32,000  Level FlightAware ADS-B
Thu 07:08:11 PM 40.3429 -93.6654 302° West 489 563 32,000  Level FlightAware ADS-B
Thu 07:08:49 PM 40.3886 -93.7611 302° West 491 565 32,000  Level FlightAware ADS-B
Thu 07:09:20 PM 40.4255 -93.8396 302° West 491 565 32,000  Level FlightAware ADS-B
Thu 07:09:58 PM 40.4712 -93.9387 301° West 492 566 32,000  Level FlightAware ADS-B
Thu 07:10:25 PM 40.5026 -94.0076 301° West 491 565 32,000  Level FlightAware ADS-B
Thu 07:10:55 PM 40.5329 -94.0879 296° West 491 565 32,000  Level FlightAware ADS-B
Thu 07:11:26 PM 40.5635 -94.1709 296° West 491 565 32,000  Level FlightAware ADS-B
Thu 07:11:56 PM 40.5935 -94.2518 296° West 493 567 32,000  Level FlightAware ADS-B
Thu 07:12:27 PM 40.6234 -94.3326 296° West 494 568 32,000  Level FlightAware ADS-B
Thu 07:12:57 PM 40.6537 -94.4165 295° West 495 570 32,000  Level FlightAware ADS-B
Thu 07:13:27 PM 40.6836 -94.4979 296° West 496 571 32,000  Level FlightAware ADS-B
Thu 07:13:58 PM 40.7137 -94.5799 296° West 497 572 32,000  Level FlightAware ADS-B
Thu 07:14:36 PM 40.7521 -94.6865 295° West 497 572 32,000  Level FlightAware ADS-B
Thu 07:15:07 PM 40.7819 -94.7682 296° West 496 571 32,000  Level FlightAware ADS-B
Thu 07:15:39 PM 40.8134 -94.8581 295° West 493 567 32,000  Level FlightAware ADS-B
Thu 07:16:11 PM 40.8452 -94.9450 296° West 492 566 32,000  Level FlightAware ADS-B
Thu 07:16:41 PM 40.8743 -95.0264 295° West 494 568 32,000  Level FlightAware ADS-B
Thu 07:17:12 PM 40.9038 -95.1088 295° West 499 574 32,000  Level FlightAware ADS-B
Thu 07:17:42 PM 40.9333 -95.1916 295° West 501 577 32,000  Level FlightAware ADS-B
Thu 07:18:15 PM 40.9662 -95.2856 295° West 498 573 32,000  Level FlightAware ADS-B
Thu 07:18:45 PM 40.9954 -95.3680 295° West 494 568 32,000  Level FlightAware ADS-B
Thu 07:19:16 PM 41.0246 -95.4500 295° West 492 566 32,000  Level FlightAware ADS-B
Thu 07:19:46 PM 41.0537 -95.5345 295° West 492 566 32,000  Level FlightAware ADS-B
Thu 07:20:16 PM 41.0829 -95.6166 295° West 492 566 32,000  Level FlightAware ADS-B
Thu 07:20:47 PM 41.1121 -95.7014 295° West 492 566 32,000  Level FlightAware ADS-B
Thu 07:21:18 PM 41.1418 -95.7863 295° West 491 565 32,000  Level FlightAware ADS-B
Thu 07:21:49 PM 41.1711 -95.8711 295° West 491 565 32,000  Level FlightAware ADS-B
Thu 07:22:19 PM 41.1997 -95.9531 295° West 491 565 32,000  Level FlightAware ADS-B
Thu 07:22:49 PM 41.2280 -96.0352 295° West 491 565 32,000  Level FlightAware ADS-B
Thu 07:23:20 PM 41.2571 -96.1201 295° West 491 565 32,000  Level FlightAware ADS-B
Thu 07:23:50 PM 41.2856 -96.2025 295° West 492 566 32,000  Level FlightAware ADS-B
Thu 07:24:21 PM 41.3148 -96.2880 294° West 493 567 32,000  Level FlightAware ADS-B
Thu 07:24:56 PM 41.3477 -96.3817 295° West 493 567 32,000  Level FlightAware ADS-B
Thu 07:25:27 PM 41.3774 -96.4700 294° West 494 568 32,000  Level FlightAware ADS-B
Thu 07:25:58 PM 41.4057 -96.5529 294° West 493 567 32,000  Level FlightAware ADS-B
Thu 07:26:29 PM 41.4351 -96.6414 294° West 493 567 32,000  Level FlightAware ADS-B
Thu 07:27:01 PM 41.4645 -96.7276 294° West 493 567 32,000  Level FlightAware ADS-B
Thu 07:27:33 PM 41.4946 -96.8162 294° West 493 567 32,000  Level FlightAware ADS-B
Thu 07:28:03 PM 41.5225 -96.8992 294° West 492 566 32,000  Level FlightAware ADS-B
Thu 07:28:33 PM 41.5502 -96.9821 294° West 489 563 32,000  Level FlightAware ADS-B
Thu 07:29:03 PM 41.5776 -97.0671 293° West 485 558 32,000  Level FlightAware ADS-B
Thu 07:29:36 PM 41.6077 -97.1573 294° West 483 556 32,000  Level FlightAware ADS-B
Thu 07:30:06 PM 41.6348 -97.2391 294° West 482 555 32,000  Level FlightAware ADS-B
Thu 07:30:37 PM 41.6620 -97.3207 294° West 483 556 32,000  Level FlightAware ADS-B
Thu 07:31:10 PM 41.6921 -97.4136 293° West 482 555 32,000  Level FlightAware ADS-B
Thu 07:31:41 PM 41.7198 -97.4984 294° West 482 555 32,000  Level FlightAware ADS-B
Thu 07:32:20 PM 41.7543 -97.6020 294° West 482 555 32,000  Level FlightAware ADS-B
Thu 07:32:50 PM 41.7809 -97.6841 294° West 481 554 32,000  Level FlightAware ADS-B
Thu 07:33:21 PM 41.8088 -97.7712 293° West 479 551 32,000  Level FlightAware ADS-B
Thu 07:33:53 PM 41.8362 -97.8557 294° West 478 550 32,000  Level FlightAware ADS-B
Thu 07:34:23 PM 41.8631 -97.9398 293° West 476 548 32,000  Level FlightAware ADS-B
Thu 07:35:28 PM 41.9192 -98.1153 293° West 475 547 32,000  Level FlightAware ADS-B
Thu 07:35:59 PM 41.9459 -98.1992 293° West 475 547 32,000  Level FlightAware ADS-B
Thu 07:36:29 PM 41.9718 -98.2806 293° West 475 547 32,000  Level FlightAware ADS-B
Thu 07:36:59 PM 41.9976 -98.3619 293° West 475 547 32,000  Level FlightAware ADS-B
Thu 07:37:36 PM 42.0295 -98.4625 293° West 475 547 32,000  Level FlightAware ADS-B
Thu 07:38:06 PM 42.0553 -98.5439 293° West 475 547 32,000  Level FlightAware ADS-B
Thu 07:38:37 PM 42.0810 -98.6254 293° West 475 547 32,000  Level FlightAware ADS-B
Thu 07:39:19 PM 42.1167 -98.7397 293° West 475 547 32,000  Level FlightAware ADS-B
Thu 07:39:50 PM 42.1435 -98.8265 293° West 472 543 32,000  Level FlightAware ADS-B
Thu 07:40:21 PM 42.1693 -98.9106 293° West 472 543 32,000  Level FlightAware ADS-B
Thu 07:41:03 PM 42.2041 -99.0218 293° West 472 543 32,000  Level FlightAware ADS-B
Thu 07:41:33 PM 42.2295 -99.1030 293° West 471 542 32,000  Level FlightAware ADS-B
Thu 07:42:03 PM 42.2544 -99.1843 293° West 470 541 32,000  Level FlightAware ADS-B
Thu 07:42:34 PM 42.2802 -99.2710 292° West 469 540 32,000  Level FlightAware ADS-B
Thu 07:43:04 PM 42.3049 -99.3524 292° West 470 541 32,000  Level FlightAware ADS-B
Thu 07:43:36 PM 42.3313 -99.4389 292° West 469 540 32,000  Level FlightAware ADS-B
Thu 07:44:12 PM 42.3609 -99.5338 293° West 470 541 32,000  Level FlightAware ADS-B
Thu 07:45:00 PM 42.3892 -99.6289 293° West 468 539 32,000  Level Denver Center
Thu 07:46:02 PM 42.4475 -99.8258 292° West 470 541 32,000  Level Denver Center
Thu 07:47:04 PM 42.4969 -99.9881 293° West 466 536 32,000  Level Denver Center
Thu 07:48:06 PM 42.5658 -100.1481 300° West 464 534 32,000  Level Denver Center
Thu 07:49:08 PM 42.6325 -100.2889 303° West 462 532 32,000  Level Denver Center
Thu 07:50:10 PM 42.7069 -100.4536 302° West 460 529 32,000  Level Denver Center
Thu 07:51:12 PM 42.7775 -100.6078 302° West 458 527 32,000  Level Denver Center
Thu 07:52:26 PM 42.8428 -100.7542 301° West 455 524 32,000  Level Denver Center
Thu 07:53:29 PM 42.9217 -100.9306 301° West 454 522 32,000  Level Denver Center
Thu 07:54:31 PM 42.9883 -101.0783 302° West 455 524 32,000  Level Denver Center
Thu 07:55:33 PM 43.0533 -101.2256 301° West 454 522 32,000  Level Denver Center
Thu 07:56:35 PM 43.1172 -101.3722 301° West 449 517 32,000  Level Denver Center
Thu 07:57:37 PM 43.1822 -101.5208 301° West 453 521 32,000  Level Denver Center
Thu 07:58:39 PM 43.2619 -101.7017 301° West 461 531 32,000  Level Denver Center
Thu 07:59:41 PM 43.3242 -101.8433 301° West 457 526 32,000  Level Denver Center
Thu 08:00:43 PM 43.3914 -102.0019 300° West 459 528 32,000  Level Denver Center
Thu 08:01:45 PM 43.4553 -102.1553 300° West 455 524 32,000  Level Denver Center
Thu 08:02:47 PM 43.5242 -102.3242 299° West 453 521 32,000  Level Denver Center
Thu 08:03:49 PM 43.5817 -102.4669 299° West 448 516 32,000  Level Denver Center
Thu 08:04:51 PM 43.6383 -102.6092 299° West 444 511 32,000  Level Denver Center
Thu 08:05:53 PM 43.7092 -102.7786 300° West 449 517 32,000  Level Denver Center
Thu 08:06:55 PM 43.7686 -102.9247 299° West 454 522 32,000  Level Denver Center
Thu 08:07:57 PM 43.8361 -103.0953 299° West 454 522 32,000  Level Denver Center
Thu 08:08:59 PM 43.8942 -103.2392 299° West 451 519 32,000  Level Denver Center
Thu 08:10:01 PM 43.9606 -103.4067 299° West 446 513 32,000  Level Denver Center
Thu 08:11:03 PM 44.0169 -103.5506 299° West 445 512 32,000  Level Denver Center
Thu 08:12:05 PM 44.0825 -103.7175 299° West 445 512 32,000  Level Denver Center
Thu 08:13:07 PM 44.1392 -103.8628 299° West 447 514 32,000  Level Denver Center
Thu 08:14:09 PM 44.2044 -104.0331 298° West 447 514 32,000  Level Denver Center
Thu 08:15:11 PM 44.2592 -104.1750 298° West 440 506 32,000  Level Denver Center
Thu 08:16:13 PM 44.3222 -104.3406 298° West 435 501 32,000  Level Denver Center
Thu 08:17:15 PM 44.3775 -104.4853 298° West 440 506 32,000  Level Denver Center
Thu 08:18:17 PM 44.4411 -104.6503 298° West 435 501 32,000  Level Denver Center
Thu 08:19:19 PM 44.4964 -104.7933 298° West 437 503 32,000  Level Denver Center
Thu 08:20:22 PM 44.5586 -104.9644 297° West 440 506 32,000  Level Denver Center
Thu 08:21:24 PM 44.6128 -105.1089 298° West 439 505 32,000  Level Denver Center
Thu 08:22:26 PM 44.6756 -105.2767 298° West 436 502 32,000  Level Denver Center
Thu 08:23:28 PM 44.7281 -105.4200 297° West 441 507 32,000  Level Denver Center
Thu 08:24:30 PM 44.7836 -105.5728 297° West 440 506 32,000  Level Denver Center
Thu 08:25:32 PM 44.8397 -105.7242 298° West 438 504 32,000  Level Denver Center
Thu 08:26:34 PM 44.9056 -105.9075 297° West 438 504 32,000  Level Denver Center
Thu 08:27:36 PM 44.9597 -106.0603 297° West 438 504 32,000  Level Denver Center
Thu 08:28:38 PM 45.0139 -106.2125 297° West 437 503 32,000  Level Denver Center
Thu 08:29:47 PM 45.0800 -106.3972 297° West 440 506 32,000 -137 Level Salt Lake Center
Thu 08:30:49 PM 45.1344 -106.5494 297° West 435 501 31,700 -1,597 Descending Salt Lake Center
Thu 08:31:51 PM 45.1864 -106.6989 296° West 428 493 28,700 -3,484 Descending Salt Lake Center
Thu 08:32:53 PM 45.2383 -106.8472 296° West 423 487 24,500 -3,629 Descending Salt Lake Center
Thu 08:33:55 PM 45.2900 -106.9953 296° West 422 486 21,200 -3,220 Descending Salt Lake Center
Thu 08:34:56 PM 45.3506 -107.1706 296° West 420 483 17,900 -2,488 Descending Salt Lake Center
Thu 08:35:58 PM 45.3969 -107.3083 296° West 403 464 16,100 -919 Descending Salt Lake Center
Thu 08:37:00 PM 45.4408 -107.4344 296° West 365 420 16,000 -48 Descending Salt Lake Center
Thu 08:38:02 PM 45.4892 -107.5797 295° West 372 428 16,000  Level Salt Lake Center
Thu 08:39:04 PM 45.5328 -107.7103 296° West 361 415 16,000 -339 Level Salt Lake Center
Thu 08:40:06 PM 45.5711 -107.8256 295° West 299 344 15,300 -1,161 Descending Salt Lake Center
Thu 08:41:08 PM 45.6050 -107.9258 296° West 286 329 13,600 -2,032 Descending Salt Lake Center
Thu 08:42:10 PM 45.6444 -108.0325 298° West 286 329 11,100 -2,390 Descending Salt Lake Center
Thu 08:43:11 PM 45.6825 -108.1319 299° West 288 331 8,700 -2,000 Descending Salt Lake Center
Thu 08:44:13 PM 45.7217 -108.2353 299° West 276 318 7,000 -1,258 Descending Salt Lake Center
Thu 08:45:15 PM 45.7475 -108.3222 293° West 237 273 6,100 -919 Descending Salt Lake Center
Thu 08:46:17 PM 45.7686 -108.3972 292° West 196 226 5,100 -823 Descending Salt Lake Center
Thu 08:47:19 PM 45.7844 -108.4533 292° West 159 183 4,400 -726 Descending Salt Lake Center
Thu 08:48:21 PM 45.7992 -108.5061 292° West 141 162 3,600 -774 Descending Salt Lake Center
Thu 08:50:00 PM 45.8000 -108.5333 300° West  Level FlightAware Approximate
Thu 08:57:00 PM 45.8077 -108.5429 300° West  Level Estimated

Login

Don't have an account? Register now (free) for customized features, flight alerts, and more!